createdAt,value
2018-10-07T00:03:46.037Z,14.44
2018-10-07T00:08:48.187Z,13.94
2018-10-07T00:14:00.296Z,14.00
2018-10-07T00:19:15.699Z,13.57
2018-10-07T00:24:28.736Z,13.53
2018-10-07T00:29:32.427Z,13.47
2018-10-07T00:34:34.524Z,13.23
2018-10-07T00:39:36.651Z,13.20
2018-10-07T00:44:38.798Z,13.34
2018-10-07T00:49:40.930Z,13.30
2018-10-07T00:54:43.098Z,13.28
2018-10-07T00:59:45.263Z,13.20
2018-10-07T01:04:47.462Z,13.18
2018-10-07T01:09:49.592Z,13.25
2018-10-07T01:14:51.810Z,13.04
2018-10-07T01:19:54.147Z,13.11
2018-10-07T01:24:56.251Z,12.95
2018-10-07T01:29:58.362Z,12.84
2018-10-07T01:35:00.511Z,12.85
2018-10-07T01:40:02.667Z,12.63
2018-10-07T01:45:04.835Z,12.63
2018-10-07T01:50:07.157Z,12.72
2018-10-07T01:55:09.381Z,12.62
2018-10-07T02:00:11.526Z,12.82
2018-10-07T02:05:13.704Z,12.79
2018-10-07T02:10:15.767Z,12.76
2018-10-07T02:15:18.011Z,12.70
2018-10-07T02:20:20.123Z,12.82
2018-10-07T02:25:22.220Z,12.75
2018-10-07T02:30:24.339Z,12.68
2018-10-07T02:35:26.475Z,12.67
2018-10-07T02:40:28.623Z,12.67
2018-10-07T02:45:30.768Z,12.68
2018-10-07T02:50:32.985Z,12.71
2018-10-07T02:55:35.169Z,12.63
2018-10-07T03:00:37.309Z,12.57
2018-10-07T03:05:39.418Z,12.49
2018-10-07T03:10:41.534Z,12.48
2018-10-07T03:15:43.666Z,12.40
2018-10-07T03:20:45.777Z,12.35
2018-10-07T03:25:47.946Z,12.47
2018-10-07T03:30:50.087Z,12.52
2018-10-07T03:35:52.215Z,12.33
2018-10-07T03:40:54.380Z,12.37
2018-10-07T03:45:56.463Z,12.42
2018-10-07T03:50:58.643Z,12.31
2018-10-07T03:56:00.785Z,12.34
2018-10-07T04:01:02.941Z,12.37
2018-10-07T04:06:05.054Z,12.28
2018-10-07T04:11:07.182Z,12.33
2018-10-07T04:16:09.288Z,12.30
2018-10-07T04:21:11.480Z,12.25
2018-10-07T04:26:13.622Z,12.24
2018-10-07T04:31:15.735Z,12.24
2018-10-07T04:36:17.836Z,12.12
2018-10-07T04:41:19.931Z,12.01
2018-10-07T04:46:22.193Z,12.00
2018-10-07T04:51:24.258Z,11.93
2018-10-07T04:56:26.398Z,12.00
2018-10-07T05:01:28.548Z,11.97
2018-10-07T05:06:32.715Z,11.93
2018-10-07T05:11:34.880Z,11.64
2018-10-07T05:16:38.837Z,11.62
2018-10-07T05:21:40.968Z,11.64
2018-10-07T05:26:43.164Z,11.60
2018-10-07T05:31:45.270Z,11.58
2018-10-07T05:36:47.388Z,11.53
2018-10-07T05:41:49.512Z,11.50
2018-10-07T05:46:51.700Z,11.51
2018-10-07T05:51:53.879Z,11.50
2018-10-07T05:56:56.072Z,11.55
2018-10-07T06:02:01.115Z,11.49
2018-10-07T06:07:03.687Z,11.48
2018-10-07T06:12:06.071Z,11.48
2018-10-07T06:17:08.231Z,11.54
2018-10-07T06:22:10.420Z,11.56
2018-10-07T06:27:12.621Z,11.51
2018-10-07T06:32:14.829Z,11.58
2018-10-07T06:37:17.054Z,11.61
2018-10-07T06:42:19.213Z,11.67
2018-10-07T06:47:21.419Z,11.59
2018-10-07T06:52:23.619Z,11.67
2018-10-07T06:57:25.843Z,11.73
2018-10-07T07:02:28.415Z,11.76
2018-10-07T07:07:30.576Z,11.84
2018-10-07T07:12:32.761Z,11.87
2018-10-07T07:17:34.953Z,11.95
2018-10-07T07:22:37.130Z,11.95
2018-10-07T07:27:39.288Z,12.03
2018-10-07T07:32:41.410Z,12.17
2018-10-07T07:37:43.603Z,12.20
2018-10-07T07:42:45.791Z,12.24
2018-10-07T07:47:47.966Z,12.22
2018-10-07T07:52:50.147Z,12.34
2018-10-07T07:57:52.415Z,12.45
2018-10-07T08:02:54.558Z,12.41
2018-10-07T08:07:56.708Z,12.50
2018-10-07T08:12:58.859Z,12.63
2018-10-07T08:18:01.027Z,12.66
2018-10-07T08:23:03.162Z,12.67
2018-10-07T08:28:05.578Z,12.77
2018-10-07T08:33:07.757Z,12.80
2018-10-07T08:38:09.927Z,12.91
2018-10-07T08:43:12.330Z,13.01
2018-10-07T08:48:14.510Z,13.09
2018-10-07T08:53:16.646Z,13.14
2018-10-07T08:58:18.812Z,13.13
2018-10-07T09:03:21.755Z,13.19
2018-10-07T09:08:23.931Z,13.25
2018-10-07T09:13:26.081Z,13.17
2018-10-07T09:18:28.181Z,13.22
2018-10-07T09:23:30.438Z,13.23
2018-10-07T09:28:32.594Z,13.25
2018-10-07T09:33:34.749Z,13.35
2018-10-07T09:38:36.913Z,13.42
2018-10-07T09:43:39.050Z,13.56
2018-10-07T09:48:41.222Z,13.70
2018-10-07T09:53:43.349Z,13.95
2018-10-07T09:58:45.574Z,14.10
2018-10-07T10:03:47.833Z,14.30
2018-10-07T10:08:49.980Z,14.45
2018-10-07T10:13:52.124Z,14.61
2018-10-07T10:18:54.365Z,15.04
2018-10-07T10:26:16.998Z,15.42
2018-10-07T10:31:31.432Z,15.90
2018-10-07T10:36:41.223Z,16.07
2018-10-07T10:41:47.688Z,16.30
2018-10-07T10:46:56.119Z,16.61
2018-10-07T10:52:42.876Z,16.90
2018-10-07T10:57:48.025Z,17.11
2018-10-07T11:07:11.596Z,17.42
2018-10-07T11:12:55.952Z,17.87
2018-10-07T11:20:14.153Z,17.85
2018-10-07T11:25:29.417Z,18.15
2018-10-07T11:31:09.894Z,18.31
2018-10-07T11:36:28.289Z,18.52
2018-10-07T11:41:54.208Z,18.88
2018-10-07T11:47:07.351Z,19.17
2018-10-07T11:52:23.069Z,19.80
2018-10-07T11:57:25.728Z,20.13
2018-10-07T12:02:28.011Z,20.29
2018-10-07T12:07:31.221Z,20.33
2018-10-07T12:12:33.368Z,20.33
2018-10-07T12:17:35.513Z,20.33
2018-10-07T12:22:37.669Z,20.89
2018-10-07T12:27:39.829Z,21.60
2018-10-07T12:32:41.965Z,22.03
2018-10-07T12:37:44.115Z,21.42
2018-10-07T12:42:46.295Z,21.48
2018-10-07T12:47:48.489Z,22.42
2018-10-07T12:52:51.352Z,22.80
2018-10-07T12:57:53.483Z,22.59
2018-10-07T13:02:55.647Z,22.61
2018-10-07T13:07:57.828Z,21.98
2018-10-07T13:13:00.019Z,21.53
2018-10-07T13:18:02.199Z,21.77
2018-10-07T13:23:04.353Z,21.17
2018-10-07T13:28:06.647Z,20.98
2018-10-07T13:33:08.848Z,21.79
2018-10-07T13:38:11.477Z,23.25
2018-10-07T13:43:13.601Z,24.39
2018-10-07T13:48:15.753Z,25.04
2018-10-07T13:53:18.010Z,25.67
2018-10-07T13:58:20.197Z,26.10
2018-10-07T14:03:22.379Z,26.19
2018-10-07T14:08:24.604Z,26.18
2018-10-07T14:13:27.163Z,26.18
2018-10-07T14:18:29.315Z,26.37
2018-10-07T14:23:31.466Z,26.13
2018-10-07T14:28:33.598Z,26.00
2018-10-07T14:33:35.895Z,25.23
2018-10-07T14:38:38.072Z,24.41
2018-10-07T14:43:40.255Z,23.58
2018-10-07T14:48:42.431Z,22.43
2018-10-07T14:53:44.672Z,21.46
2018-10-07T14:58:46.827Z,20.70
2018-10-07T15:03:49.074Z,20.37
2018-10-07T15:08:51.356Z,19.92
2018-10-07T15:13:53.567Z,19.43
2018-10-07T15:18:55.759Z,19.08
2018-10-07T15:23:58.072Z,18.75
2018-10-07T15:29:00.261Z,18.43
2018-10-07T15:34:02.458Z,18.10
2018-10-07T15:39:05.460Z,17.91
2018-10-07T15:44:07.710Z,17.69
2018-10-07T15:49:09.932Z,17.42
2018-10-07T15:54:12.142Z,17.23
2018-10-07T15:59:14.377Z,17.07
2018-10-07T16:04:17.174Z,16.83
2018-10-07T16:09:19.439Z,16.70
2018-10-07T16:14:21.629Z,16.49
2018-10-07T16:19:23.815Z,16.68
2018-10-07T16:24:26.007Z,16.75
2018-10-07T16:29:28.164Z,16.85
2018-10-07T16:34:30.318Z,16.87
2018-10-07T16:39:33.682Z,16.82
2018-10-07T16:44:35.933Z,16.79
2018-10-07T16:49:38.114Z,16.77
2018-10-07T16:54:40.260Z,16.83
2018-10-07T16:59:42.435Z,16.78
2018-10-07T17:04:44.657Z,16.66
2018-10-07T17:09:46.938Z,16.61
2018-10-07T17:14:49.601Z,16.58
2018-10-07T17:19:51.943Z,16.53
2018-10-07T17:24:54.245Z,16.48
2018-10-07T17:29:56.421Z,16.41
2018-10-07T17:34:58.633Z,15.60
2018-10-07T17:40:00.811Z,15.04
2018-10-07T17:45:03.310Z,14.62
2018-10-07T17:50:05.505Z,14.50
2018-10-07T17:55:07.772Z,14.24
2018-10-07T18:00:10.056Z,14.02
2018-10-07T18:05:12.984Z,13.72
2018-10-07T18:10:15.268Z,13.86
2018-10-07T18:15:17.582Z,15.00
2018-10-07T18:20:19.825Z,14.64
2018-10-07T18:25:22.117Z,14.07
2018-10-07T18:30:24.528Z,13.71
2018-10-07T18:35:26.946Z,13.54
2018-10-07T18:40:29.288Z,13.48
2018-10-07T18:45:31.691Z,13.30
2018-10-07T18:50:34.282Z,13.21
2018-10-07T18:55:36.907Z,13.12
2018-10-07T19:00:39.386Z,13.00
2018-10-07T19:05:42.069Z,12.94
2018-10-07T19:10:44.781Z,12.91
2018-10-07T19:15:47.389Z,12.75
2018-10-07T19:20:50.321Z,12.70
2018-10-07T19:25:52.712Z,12.71
2018-10-07T19:30:55.482Z,12.52
2018-10-07T19:35:58.080Z,12.46
2018-10-07T19:41:00.603Z,12.53
2018-10-07T19:46:03.242Z,12.48
2018-10-07T19:51:06.080Z,12.46
2018-10-07T19:56:08.655Z,12.32
2018-10-07T20:01:11.046Z,12.26
2018-10-07T20:06:13.609Z,12.20
2018-10-07T20:11:15.946Z,12.14
2018-10-07T20:16:18.310Z,12.03
2018-10-07T20:21:20.641Z,12.00
2018-10-07T20:26:22.908Z,12.01
2018-10-07T20:31:25.098Z,11.95
2018-10-07T20:36:27.244Z,11.90
2018-10-07T20:41:29.427Z,11.81
2018-10-07T20:46:31.579Z,11.76
2018-10-07T20:51:33.767Z,11.76
2018-10-07T20:56:35.919Z,11.79
2018-10-07T21:01:38.152Z,11.64
2018-10-07T21:06:40.319Z,11.54
2018-10-07T21:11:42.534Z,11.53
2018-10-07T21:16:44.654Z,11.53
2018-10-07T21:21:46.775Z,11.55
2018-10-07T21:26:48.908Z,11.46
2018-10-07T21:31:51.040Z,11.46
2018-10-07T21:36:53.202Z,11.36
2018-10-07T21:41:55.341Z,11.29
2018-10-07T21:46:57.500Z,11.36
2018-10-07T21:51:59.618Z,11.39
2018-10-07T21:57:01.743Z,11.35
2018-10-07T22:02:03.926Z,11.26
2018-10-07T22:07:06.579Z,11.31
2018-10-07T22:12:08.776Z,11.36
2018-10-07T22:17:10.921Z,11.36
2018-10-07T22:22:13.049Z,11.28
2018-10-07T22:27:15.192Z,11.24
2018-10-07T22:32:17.318Z,11.19
2018-10-07T22:37:19.448Z,11.14
2018-10-07T22:42:21.554Z,11.09
2018-10-07T22:47:23.691Z,11.12
2018-10-07T22:52:25.846Z,10.98
2018-10-07T22:57:28.032Z,11.09
2018-10-07T23:02:30.204Z,11.07
2018-10-07T23:07:32.311Z,10.90
2018-10-07T23:12:34.489Z,10.86
2018-10-07T23:17:36.631Z,10.78
2018-10-07T23:22:38.831Z,10.83
2018-10-07T23:27:40.962Z,10.78
2018-10-07T23:32:43.104Z,10.80
2018-10-07T23:37:45.240Z,10.66
2018-10-07T23:42:47.383Z,10.65
2018-10-07T23:47:49.490Z,10.65
2018-10-07T23:52:51.690Z,10.59
2018-10-07T23:57:53.808Z,10.62
